VKG8CB ENTC-ENBO

Flight info

Callsign VKG8CB
Flight time 0h 56m
Altitude 26000
Route AMIMO DCT GEPTU
Aircraft A321/M-SDE3FGHIRWY/LB1

Departure

Time 2026-04-29 10:37
Airport Tromsø Airport (ENTC)

Arrival

Time 2026-04-29 11:33
Airport Bodø Airport (ENBO)
Time Latitude Longitude Altitude Speed Heading
2026-04-29 10:03 69.67834 18.90835 35 ft 0 kts 282°
2026-04-29 10:28 69.67833 18.90841 34 ft 2 kts 282°
2026-04-29 10:29 69.67828 18.90915 34 ft 4 kts 282°
2026-04-29 10:29 69.67823 18.90991 32 ft 4 kts 282°
2026-04-29 10:29 69.67817 18.91066 34 ft 4 kts 282°
2026-04-29 10:29 69.67815 18.91093 34 ft 0 kts 282°
2026-04-29 10:31 69.67829 18.91085 31 ft 5 kts
2026-04-29 10:32 69.67894 18.91210 35 ft 17 kts 21°
2026-04-29 10:32 69.68030 18.91301 35 ft 20 kts 12°
2026-04-29 10:32 69.68165 18.91390 34 ft 20 kts 13°
2026-04-29 10:32 69.68309 18.91485 28 ft 22 kts 12°
2026-04-29 10:33 69.68451 18.91509 27 ft 20 kts
2026-04-29 10:33 69.68584 18.91588 24 ft 20 kts 12°
2026-04-29 10:33 69.68710 18.91677 20 ft 15 kts 15°
2026-04-29 10:33 69.68776 18.91811 20 ft 12 kts 84°
2026-04-29 10:34 69.68762 18.92105 19 ft 16 kts 77°
2026-04-29 10:34 69.68878 18.92257 22 ft 25 kts 13°
2026-04-29 10:34 69.69077 18.92395 24 ft 33 kts 13°
2026-04-29 10:34 69.69282 18.92529 23 ft 19 kts 14°
2026-04-29 10:35 69.69358 18.92652 22 ft 9 kts 335°
2026-04-29 10:35 69.69352 18.92571 23 ft 2 kts 208°
2026-04-29 10:35 69.69334 18.92557 23 ft 0 kts 195°
2026-04-29 10:36 69.69323 18.92548 23 ft 11 kts 194°
2026-04-29 10:36 69.68981 18.92320 23 ft 86 kts 193°
2026-04-29 10:36 69.68198 18.91798 35 ft 140 kts 193°
2026-04-29 10:36 69.67208 18.91141 549 ft 143 kts 193°
2026-04-29 10:37 69.66237 18.90496 1209 ft 144 kts 193°
2026-04-29 10:37 69.65260 18.89840 1942 ft 144 kts 192°
2026-04-29 10:37 69.64284 18.89198 2632 ft 144 kts 192°
2026-04-29 10:37 69.63308 18.88555 3309 ft 146 kts 193°
2026-04-29 10:38 69.62272 18.87871 3697 ft 165 kts 194°
2026-04-29 10:38 69.61061 18.87067 3979 ft 187 kts 194°
2026-04-29 10:38 69.59715 18.86175 4203 ft 211 kts 194°
2026-04-29 10:38 69.58218 18.85183 4535 ft 237 kts 195°
2026-04-29 10:39 69.56636 18.83351 5092 ft 252 kts 211°
2026-04-29 10:39 69.55077 18.80900 5912 ft 259 kts 210°
2026-04-29 10:39 69.53462 18.78485 6781 ft 264 kts 210°
2026-04-29 10:39 69.51815 18.76069 7677 ft 268 kts 210°
2026-04-29 10:40 69.50136 18.73615 8546 ft 274 kts 211°
2026-04-29 10:40 69.48426 18.71102 9377 ft 279 kts 211°
2026-04-29 10:40 69.46687 18.68545 10186 ft 284 kts 212°
2026-04-29 10:40 69.44882 18.65880 10622 ft 303 kts 212°
2026-04-29 10:41 69.42939 18.62996 10879 ft 327 kts 212°
2026-04-29 10:41 69.40854 18.59915 11180 ft 346 kts 211°
2026-04-29 10:41 69.38682 18.56736 11827 ft 354 kts 211°
2026-04-29 10:41 69.36467 18.53512 12551 ft 361 kts 211°
2026-04-29 10:42 69.34980 18.51352 13034 ft 365 kts 211°
2026-04-29 10:42 69.32703 18.48065 13769 ft 371 kts 211°
2026-04-29 10:42 69.30346 18.44900 14409 ft 378 kts 208°
2026-04-29 10:42 69.27924 18.41862 15069 ft 383 kts 207°
2026-04-29 10:43 69.25459 18.38886 15751 ft 388 kts 207°
2026-04-29 10:43 69.22957 18.35906 16424 ft 392 kts 207°
2026-04-29 10:43 69.20430 18.32884 17026 ft 398 kts 207°
2026-04-29 10:43 69.17862 18.29778 17640 ft 404 kts 208°
2026-04-29 10:44 69.15272 18.26615 18264 ft 408 kts 208°
2026-04-29 10:44 69.12651 18.23397 18824 ft 413 kts 208°
2026-04-29 10:44 69.10010 18.20157 19401 ft 416 kts 208°
2026-04-29 10:44 69.07351 18.16902 19987 ft 419 kts 208°
2026-04-29 10:45 69.04665 18.13630 20568 ft 422 kts 208°
2026-04-29 10:45 69.02001 18.10394 21100 ft 424 kts 208°
2026-04-29 10:45 68.99281 18.07102 21685 ft 428 kts 208°
2026-04-29 10:45 68.96544 18.03802 22265 ft 430 kts 209°
2026-04-29 10:46 68.93788 18.00502 22828 ft 433 kts 209°
2026-04-29 10:46 68.91008 17.97187 23346 ft 436 kts 209°
2026-04-29 10:46 68.88281 17.93463 23829 ft 435 kts 216°
2026-04-29 10:46 68.85637 17.89329 24276 ft 438 kts 216°
2026-04-29 10:47 68.82977 17.85177 24713 ft 441 kts 216°
2026-04-29 10:47 68.80288 17.81000 25141 ft 444 kts 216°
2026-04-29 10:47 68.77582 17.76822 25559 ft 447 kts 216°
2026-04-29 10:47 68.74855 17.72630 25969 ft 450 kts 216°
2026-04-29 10:48 68.72110 17.68424 26129 ft 451 kts 216°
2026-04-29 10:48 68.69375 17.64252 26151 ft 449 kts 216°
2026-04-29 10:48 68.66639 17.60088 26153 ft 449 kts 216°
2026-04-29 10:48 68.63908 17.55941 26153 ft 448 kts 216°
2026-04-29 10:49 68.61177 17.51798 26138 ft 448 kts 216°
2026-04-29 10:49 68.58445 17.47658 26163 ft 449 kts 216°
2026-04-29 10:49 68.55709 17.43519 26164 ft 449 kts 216°
2026-04-29 10:49 68.52974 17.39398 26163 ft 449 kts 216°
2026-04-29 10:50 68.50239 17.35298 26159 ft 449 kts 216°
2026-04-29 10:50 68.47501 17.31204 26170 ft 449 kts 216°
2026-04-29 10:50 68.44768 17.27121 26165 ft 449 kts 216°
2026-04-29 10:50 68.42027 17.23030 26164 ft 449 kts 216°
2026-04-29 10:51 68.39293 17.18959 26165 ft 449 kts 216°
2026-04-29 10:51 68.36553 17.14894 26177 ft 449 kts 216°
2026-04-29 10:51 68.33812 17.10847 26176 ft 449 kts 216°
2026-04-29 10:51 68.31069 17.06808 26137 ft 449 kts 216°
2026-04-29 10:52 68.28326 17.02783 26142 ft 449 kts 216°
2026-04-29 10:52 68.25615 16.98809 26151 ft 449 kts 216°
2026-04-29 10:52 68.22871 16.94796 26159 ft 450 kts 215°
2026-04-29 10:52 68.20116 16.90790 26161 ft 450 kts 215°
2026-04-29 10:53 68.17362 16.86794 26165 ft 450 kts 215°
2026-04-29 10:53 68.14610 16.82808 26168 ft 450 kts 215°
2026-04-29 10:53 68.11850 16.78826 26174 ft 450 kts 215°
2026-04-29 10:53 68.09091 16.74859 26049 ft 451 kts 215°
2026-04-29 10:54 68.06324 16.70891 25799 ft 451 kts 215°
2026-04-29 10:54 68.03558 16.66933 25544 ft 451 kts 215°
2026-04-29 10:54 68.00791 16.62983 25277 ft 452 kts 215°
2026-04-29 10:54 67.98012 16.59021 25035 ft 454 kts 215°
2026-04-29 10:55 67.95224 16.55054 24795 ft 454 kts 214°
2026-04-29 10:55 67.92524 16.50792 24552 ft 447 kts 222°
2026-04-29 10:55 67.90195 16.45533 23983 ft 434 kts 233°
2026-04-29 10:55 67.88357 16.39343 23288 ft 422 kts 244°
2026-04-29 10:56 67.87031 16.32534 22682 ft 410 kts 254°
2026-04-29 10:56 67.86186 16.25433 22095 ft 399 kts 263°
2026-04-29 10:56 67.85672 16.18293 21562 ft 392 kts 264°
2026-04-29 10:56 67.85161 16.11231 21018 ft 387 kts 264°
2026-04-29 10:57 67.84648 16.04289 20513 ft 381 kts 264°
2026-04-29 10:57 67.84137 15.97452 20014 ft 376 kts 264°
2026-04-29 10:57 67.83632 15.90710 19540 ft 371 kts 264°
2026-04-29 10:57 67.83134 15.84056 19071 ft 366 kts 264°
2026-04-29 10:58 67.82642 15.77499 18648 ft 361 kts 263°
2026-04-29 10:58 67.82152 15.71018 18179 ft 356 kts 263°
2026-04-29 10:58 67.81665 15.64637 17745 ft 351 kts 263°
2026-04-29 10:58 67.81181 15.58342 17335 ft 349 kts 263°
2026-04-29 10:59 67.80697 15.52060 16900 ft 347 kts 263°
2026-04-29 10:59 67.80216 15.45913 16474 ft 346 kts 261°
2026-04-29 10:59 67.79417 15.39891 16029 ft 350 kts 249°
2026-04-29 10:59 67.78132 15.34370 15527 ft 356 kts 237°
2026-04-29 11:00 67.76371 15.29598 15026 ft 362 kts 224°
2026-04-29 11:00 67.74364 15.25695 14505 ft 363 kts 221°
2026-04-29 11:00 67.72316 15.21799 13960 ft 363 kts 221°
2026-04-29 11:00 67.70273 15.17904 13361 ft 362 kts 221°
2026-04-29 11:01 67.68241 15.14036 12789 ft 360 kts 220°
2026-04-29 11:01 67.66217 15.10188 12223 ft 358 kts 220°
2026-04-29 11:01 67.64204 15.06355 11632 ft 356 kts 220°
2026-04-29 11:01 67.62202 15.02553 11091 ft 354 kts 220°
2026-04-29 11:02 67.60243 14.98856 10912 ft 339 kts 220°
2026-04-29 11:02 67.58368 14.95332 10796 ft 325 kts 220°
2026-04-29 11:02 67.56603 14.92022 10665 ft 313 kts 220°
2026-04-29 11:02 67.54828 14.88696 10545 ft 302 kts 220°
2026-04-29 11:03 67.53149 14.85546 10417 ft 291 kts 220°
2026-04-29 11:03 67.51519 14.82489 10164 ft 286 kts 222°
2026-04-29 11:03 67.49909 14.79458 10010 ft 287 kts 223°
2026-04-29 11:03 67.48287 14.76401 9806 ft 289 kts 222°
2026-04-29 11:04 67.46647 14.73327 9313 ft 287 kts 221°
2026-04-29 11:04 67.45042 14.70346 8691 ft 280 kts 221°
2026-04-29 11:04 67.43469 14.67426 8148 ft 276 kts 221°
2026-04-29 11:04 67.41916 14.64547 7661 ft 271 kts 220°
2026-04-29 11:05 67.40390 14.61725 7224 ft 267 kts 220°
2026-04-29 11:05 67.38889 14.58950 6720 ft 263 kts 220°
2026-04-29 11:05 67.37432 14.56255 6141 ft 259 kts 220°
2026-04-29 11:05 67.35960 14.53541 5428 ft 253 kts 220°
2026-04-29 11:06 67.34580 14.51004 5029 ft 236 kts 220°
2026-04-29 11:06 67.33310 14.48694 4981 ft 213 kts 220°
2026-04-29 11:06 67.32146 14.46580 4922 ft 198 kts 220°
2026-04-29 11:06 67.31052 14.44584 4849 ft 186 kts 220°
2026-04-29 11:07 67.30038 14.42734 4780 ft 171 kts 221°
2026-04-29 11:07 67.29081 14.40981 4694 ft 167 kts 221°
2026-04-29 11:07 67.28139 14.39245 4611 ft 166 kts 221°
2026-04-29 11:07 67.27206 14.37500 4523 ft 164 kts 224°
2026-04-29 11:08 67.26431 14.35398 4494 ft 161 kts 236°
2026-04-29 11:08 67.25844 14.32958 4345 ft 160 kts 242°
2026-04-29 11:08 67.25277 14.30489 4216 ft 159 kts 241°
2026-04-29 11:08 67.24712 14.28038 4094 ft 159 kts 241°
2026-04-29 11:09 67.24146 14.25584 3922 ft 159 kts 241°
2026-04-29 11:09 67.23584 14.23145 3783 ft 158 kts 241°
2026-04-29 11:09 67.23019 14.20714 3662 ft 158 kts 241°
2026-04-29 11:09 67.22453 14.18291 3533 ft 158 kts 241°
2026-04-29 11:10 67.21888 14.15872 3402 ft 157 kts 240°
2026-04-29 11:10 67.21324 14.13457 3270 ft 157 kts 241°
2026-04-29 11:10 67.20764 14.11054 3138 ft 156 kts 240°
2026-04-29 11:10 67.20204 14.08646 3008 ft 157 kts 240°
2026-04-29 11:11 67.19639 14.06229 2874 ft 157 kts 240°
2026-04-29 11:11 67.19077 14.03823 2740 ft 157 kts 240°
2026-04-29 11:11 67.18516 14.01405 2613 ft 156 kts 241°
2026-04-29 11:11 67.18061 13.98890 2478 ft 155 kts 253°
2026-04-29 11:12 67.17940 13.96137 2386 ft 157 kts 269°
2026-04-29 11:12 67.18151 13.93397 2308 ft 162 kts 284°
2026-04-29 11:12 67.18716 13.90841 2301 ft 168 kts 301°
2026-04-29 11:12 67.19583 13.88895 2291 ft 161 kts 320°
2026-04-29 11:13 67.20615 13.87814 2285 ft 162 kts 337°
2026-04-29 11:13 67.21754 13.87629 2288 ft 168 kts 358°
2026-04-29 11:13 67.22885 13.88463 2319 ft 170 kts 18°
2026-04-29 11:13 67.23839 13.90240 2297 ft 171 kts 41°
2026-04-29 11:14 67.24510 13.92754 2295 ft 170 kts 65°
2026-04-29 11:14 67.24816 13.95670 2295 ft 168 kts 88°
2026-04-29 11:14 67.24885 13.98659 2306 ft 167 kts 92°
2026-04-29 11:14 67.24988 14.01652 2262 ft 168 kts 86°
2026-04-29 11:15 67.25130 14.04651 2081 ft 168 kts 86°
2026-04-29 11:15 67.25272 14.07633 1940 ft 167 kts 86°
2026-04-29 11:15 67.25413 14.10591 1799 ft 165 kts 86°
2026-04-29 11:15 67.25555 14.13513 1622 ft 162 kts 87°
2026-04-29 11:16 67.25696 14.16398 1494 ft 162 kts 87°
2026-04-29 11:16 67.25838 14.19261 1225 ft 159 kts 85°
2026-04-29 11:16 67.25975 14.22057 966 ft 155 kts 87°
2026-04-29 11:16 67.26105 14.24758 730 ft 146 kts 86°
2026-04-29 11:17 67.26224 14.27258 548 ft 135 kts 88°
2026-04-29 11:17 67.26353 14.29608 360 ft 130 kts 84°
2026-04-29 11:17 67.26529 14.31847 212 ft 125 kts 82°
2026-04-29 11:17 67.26715 14.34077 128 ft 138 kts 81°
2026-04-29 11:18 67.26864 14.36631 973 ft 150 kts 91°
2026-04-29 11:18 67.26787 14.39591 1661 ft 173 kts 102°
2026-04-29 11:18 67.26643 14.42642 2487 ft 170 kts 102°
2026-04-29 11:18 67.26496 14.45762 2874 ft 184 kts 101°
2026-04-29 11:19 67.26340 14.49226 3071 ft 206 kts 101°
2026-04-29 11:19 67.26175 14.53114 3261 ft 228 kts 100°
2026-04-29 11:19 67.26008 14.57328 3563 ft 247 kts 99°
2026-04-29 11:19 67.25843 14.61811 4246 ft 255 kts 98°
2026-04-29 11:20 67.25682 14.66379 4460 ft 255 kts 97°
2026-04-29 11:20 67.25352 14.70834 4507 ft 250 kts 117°
2026-04-29 11:20 67.24423 14.74482 4512 ft 239 kts 142°
2026-04-29 11:20 67.23054 14.76720 4506 ft 230 kts 167°
2026-04-29 11:21 67.21514 14.77304 4515 ft 220 kts 191°
2026-04-29 11:21 67.20067 14.76327 4512 ft 211 kts 213°
2026-04-29 11:21 67.18918 14.74106 4510 ft 205 kts 233°
2026-04-29 11:21 67.18177 14.71029 4514 ft 201 kts 252°
2026-04-29 11:22 67.17907 14.67541 4513 ft 199 kts 269°
2026-04-29 11:22 67.18127 14.64047 4506 ft 200 kts 287°
2026-04-29 11:22 67.18862 14.60990 4514 ft 205 kts 303°
2026-04-29 11:22 67.19768 14.58146 4507 ft 205 kts 303°
2026-04-29 11:23 67.20676 14.55310 4512 ft 205 kts 303°
2026-04-29 11:23 67.21586 14.52464 4511 ft 205 kts 303°
2026-04-29 11:23 67.22485 14.49610 4511 ft 205 kts 302°
2026-04-29 11:23 67.23375 14.46727 4511 ft 205 kts 302°
2026-04-29 11:24 67.24250 14.43885 4511 ft 205 kts 302°
2026-04-29 11:24 67.25137 14.41000 4511 ft 205 kts 302°
2026-04-29 11:24 67.25815 14.37869 4510 ft 196 kts 277°
2026-04-29 11:24 67.25764 14.34398 4513 ft 194 kts 259°
2026-04-29 11:25 67.25427 14.31030 4502 ft 194 kts 247°
2026-04-29 11:25 67.24765 14.27981 4512 ft 196 kts 238°
2026-04-29 11:25 67.23994 14.25092 4515 ft 194 kts 237°
2026-04-29 11:25 67.23247 14.22359 4472 ft 180 kts 239°
2026-04-29 11:26 67.22058 14.17166 4267 ft 158 kts 242°
2026-04-29 11:26 67.21516 14.14706 3900 ft 157 kts 242°
2026-04-29 11:26 67.20976 14.12254 3535 ft 157 kts 242°
2026-04-29 11:27 67.20435 14.09831 3173 ft 155 kts 241°
2026-04-29 11:27 67.19885 14.07435 2787 ft 155 kts 240°
2026-04-29 11:27 67.19333 14.05042 2403 ft 155 kts 240°
2026-04-29 11:27 67.18782 14.02666 2310 ft 155 kts 240°
2026-04-29 11:28 67.18301 14.00172 2299 ft 157 kts 257°
2026-04-29 11:28 67.18525 13.97434 2314 ft 164 kts 293°
2026-04-29 11:28 67.18992 13.95868 2310 ft 170 kts 307°
2026-04-29 11:28 67.20511 13.94306 2299 ft 191 kts 349°
2026-04-29 11:29 67.21401 13.94498 2291 ft 198 kts
2026-04-29 11:29 67.23090 13.96490 2290 ft 206 kts 32°
2026-04-29 11:29 67.24146 13.99032 2276 ft 210 kts 46°
2026-04-29 11:29 67.24994 14.02109 1975 ft 211 kts 59°
2026-04-29 11:30 67.25472 14.05672 1699 ft 209 kts 81°
2026-04-29 11:30 67.25618 14.08156 1541 ft 205 kts 85°
2026-04-29 11:30 67.25787 14.11745 1539 ft 192 kts 86°
2026-04-29 11:30 67.25937 14.14941 1505 ft 171 kts 87°
2026-04-29 11:31 67.26078 14.17918 1474 ft 164 kts 85°
2026-04-29 11:31 67.26211 14.20808 1194 ft 159 kts 86°
2026-04-29 11:31 67.26324 14.23618 927 ft 154 kts 90°
2026-04-29 11:31 67.26410 14.26262 685 ft 145 kts 89°
2026-04-29 11:32 67.26473 14.28788 437 ft 138 kts 93°
2026-04-29 11:32 67.26509 14.31214 239 ft 135 kts 89°
2026-04-29 11:32 67.26678 14.33610 52 ft 134 kts 83°
2026-04-29 11:32 67.26854 14.35743 37 ft 94 kts 77°
2026-04-29 11:33 67.26952 14.36903 43 ft 41 kts 78°
2026-04-29 11:33 67.26994 14.37397 47 ft 24 kts 77°
2026-04-29 11:33 67.27031 14.37859 50 ft 25 kts 78°
2026-04-29 11:33 67.27064 14.38259 54 ft 16 kts 77°
2026-04-29 11:34 67.27132 14.38367 51 ft 11 kts 345°
2026-04-29 11:34 67.27160 14.38184 56 ft 18 kts 271°
2026-04-29 11:34 67.27149 14.37748 56 ft 26 kts 259°
2026-04-29 11:34 67.27116 14.37359 54 ft 14 kts 258°
2026-04-29 11:35 67.27130 14.37188 51 ft 9 kts 323°
2026-04-29 11:35 67.27168 14.37046 47 ft 10 kts 293°
2026-04-29 11:35 67.27186 14.36935 47 ft 3 kts 293°
2026-04-29 11:35 67.27187 14.36926 47 ft 0 kts 292°